Time;durP1;ratioP1;P1;durP2;ratioP2;P2;SDS_P1;SDS_P2;PMS_P1;PMS_P2;Temp;Humidity;BMP_temperature;BMP_pressure;BME280_temperature;BME280_humidity;BME280_pressure;Samples;Min_cycle;Max_cycle;Signal;HPM_P1;HPM_P2
2021/05/21 00:02:15;;;;;;;;;;;13.40;99.90;;;11.96;60.84;100576.13;3492358;40;103081;-41
2021/05/21 00:04:42;;;;;;;;;;;13.40;99.90;;;11.90;61.11;100567.75;3508357;40;102508;-41
2021/05/21 00:07:10;;;;;;;;;;;13.30;99.90;;;11.85;61.61;100559.41;3500503;40;102616;-41
2021/05/21 00:09:38;;;;;;;;;;;13.30;99.90;;;11.73;62.31;100556.59;3492268;40;103065;-41
2021/05/21 00:12:06;;;;;;;;;;;13.20;99.90;;;11.67;62.36;100549.31;3500298;40;103022;-41
2021/05/21 00:14:34;;;;;;;;;;;13.10;99.90;;;11.64;62.21;100545.13;3492072;40;104053;-41
2021/05/21 00:17:02;;;;;;;;;;;13.10;99.90;;;11.63;62.19;100551.66;3508717;40;104381;-41
2021/05/21 00:19:29;;;;;;;;;;;13.10;99.90;;;11.64;61.83;100547.84;3500007;40;102359;-40
2021/05/21 00:21:57;;;;;;;;;;;13.10;99.90;;;11.60;63.13;100552.09;3508490;40;104241;-41
2021/05/21 00:24:25;;;;;;;;;;;13.00;99.90;;;11.64;63.22;100547.03;3508032;40;102667;-41
2021/05/21 00:26:53;;;;;;;;;;;13.00;99.90;;;11.58;63.09;100537.03;3500166;40;103276;-40
2021/05/21 00:29:21;;;;;;;;;;;13.00;99.90;;;11.58;63.74;100532.38;3491900;40;103100;-41
2021/05/21 00:31:48;;;;;;;;;;;13.00;99.90;;;11.58;63.40;100531.56;3501478;40;102248;-41
2021/05/21 00:34:16;;;;;;;;;;;13.00;99.90;;;11.57;63.58;100527.97;3510080;39;102476;-41
2021/05/21 00:36:44;;;;;;;;;;;13.00;99.90;;;11.58;63.74;100532.38;3501923;40;102308;-41
2021/05/21 00:39:11;;;;;;;;;;;13.00;99.90;;;11.59;63.59;100517.66;3501851;40;102421;-41
2021/05/21 00:41:39;;;;;;;;;;;13.00;99.90;;;11.56;63.30;100517.28;3509801;40;103052;-41
2021/05/21 00:44:07;;;;;;;;;;;13.00;99.90;;;11.56;63.39;100520.03;3501478;40;103374;-41
2021/05/21 00:46:34;;;;;;;;;;;13.00;99.90;;;11.55;64.12;100513.72;3493499;40;103013;-41
2021/05/21 00:49:03;;;;;;;;;;;12.90;99.90;;;11.59;63.14;100504.00;3501657;40;102345;-41
2021/05/21 00:51:32;;;;;;;;;;;13.00;99.90;;;11.57;63.33;100503.38;3501420;40;102435;-41
2021/05/21 00:54:01;;;;;;;;;;;13.00;99.90;;;11.55;63.52;100493.75;3501393;40;102449;-40
2021/05/21 00:56:32;;;;;;;;;;;12.90;99.90;;;11.60;63.72;100492.00;3501549;40;106067;-40
2021/05/21 00:59:00;;;;;;;;;;;13.00;99.90;;;11.59;63.87;100492.25;3509905;40;102633;-40
2021/05/21 01:01:31;;;;;;;;;;;13.00;99.90;;;11.48;63.62;100477.44;3501705;40;102307;-40
2021/05/21 01:03:59;;;;;;;;;;;12.90;99.90;;;11.45;64.64;100481.44;3509143;40;102495;-40
2021/05/21 01:06:27;;;;;;;;;;;12.90;99.90;;;11.40;64.21;100470.38;3501542;40;103167;-41
2021/05/21 01:08:56;;;;;;;;;;;12.80;99.90;;;11.39;64.54;100471.44;3501376;40;102418;-40
2021/05/21 01:11:24;;;;;;;;;;;12.80;99.90;;;11.45;64.23;100467.78;3509850;40;103274;-41
2021/05/21 01:13:52;;;;;;;;;;;12.80;99.90;;;11.47;64.37;100468.41;3501315;40;104054;-40
2021/05/21 01:16:20;;;;;;;;;;;12.80;99.90;;;11.47;64.67;100462.94;3501724;40;103922;-40
2021/05/21 01:18:48;;;;;;;;;;;12.90;99.90;;;11.46;65.01;100463.19;3640980;22;103694;-39
2021/05/21 01:21:16;;;;;;;;;;;12.80;99.90;;;11.47;64.48;100459.38;3519616;39;103099;-39
2021/05/21 01:23:44;;;;;;;;;;;12.90;99.90;;;11.52;64.64;100465.00;3503220;40;102440;-39
2021/05/21 01:26:13;;;;;;;;;;;12.90;99.90;;;11.50;64.52;100453.47;3495143;40;103249;-39
2021/05/21 01:28:41;;;;;;;;;;;12.90;99.90;;;11.49;63.88;100432.66;3495436;40;103788;-39
2021/05/21 01:31:09;;;;;;;;;;;12.90;99.90;;;11.52;64.63;100437.66;3495144;40;105087;-38
2021/05/21 01:33:37;;;;;;;;;;;12.90;99.90;;;11.47;64.29;100438.34;3503119;40;104482;-39
2021/05/21 01:36:04;;;;;;;;;;;12.90;99.90;;;11.48;65.25;100437.28;3487376;40;104710;-39
2021/05/21 01:38:32;;;;;;;;;;;12.90;99.90;;;11.42;64.97;100434.66;3487255;40;102379;-39
2021/05/21 01:41:01;;;;;;;;;;;12.80;99.90;;;11.42;64.98;100429.19;3519342;40;103038;-39
2021/05/21 01:43:31;;;;;;;;;;;12.80;99.90;;;11.44;64.81;100421.59;3494581;40;102237;-38
2021/05/21 01:45:59;;;;;;;;;;;12.80;99.90;;;11.43;64.65;100415.28;3503567;40;102310;-39
2021/05/21 01:48:26;;;;;;;;;;;12.80;99.90;;;11.40;65.11;100409.44;3511157;40;103590;-39
2021/05/21 01:50:54;;;;;;;;;;;12.80;99.90;;;11.39;65.69;100402.31;3511578;40;102594;-39
2021/05/21 01:53:23;;;;;;;;;;;12.80;99.90;;;11.34;66.59;100403.81;3495438;40;102789;-39
2021/05/21 01:55:51;;;;;;;;;;;12.70;99.90;;;11.32;65.69;100396.94;3511625;40;104123;-39
2021/05/21 01:58:19;;;;;;;;;;;12.70;99.90;;;11.33;65.04;100388.50;3511846;40;102693;-39
2021/05/21 02:00:47;;;;;;;;;;;12.70;99.90;;;11.35;64.63;100386.38;3494966;40;103178;-39
2021/05/21 02:03:15;;;;;;;;;;;12.70;99.90;;;11.32;65.11;100386.84;3494698;40;102357;-38
2021/05/21 02:05:43;;;;;;;;;;;12.70;99.90;;;11.34;65.05;100376.50;3495297;40;103426;-39
2021/05/21 02:08:11;;;;;;;;;;;12.70;99.90;;;11.31;65.49;100374.25;3511235;40;103658;-39
2021/05/21 02:10:39;;;;;;;;;;;12.70;99.90;;;11.33;65.11;100377.56;3511444;40;103075;-39
2021/05/21 02:13:07;;;;;;;;;;;12.70;99.90;;;11.39;65.24;100372.25;3511497;40;102916;-39
2021/05/21 02:15:35;;;;;;;;;;;12.80;99.90;;;11.37;65.65;100372.50;3502627;40;103191;-39
2021/05/21 02:18:03;;;;;;;;;;;12.70;99.90;;;11.37;65.72;100365.13;3495214;40;103574;-39
2021/05/21 02:20:30;;;;;;;;;;;12.80;99.90;;;11.36;64.99;100360.72;3502642;40;103103;-39
2021/05/21 02:22:58;;;;;;;;;;;12.80;99.90;;;11.44;65.29;100369.69;3502928;40;102897;-39
2021/05/21 02:25:26;;;;;;;;;;;12.80;99.90;;;11.44;65.89;100361.50;3494909;40;104163;-39
2021/05/21 02:27:54;;;;;;;;;;;12.80;99.90;;;11.43;65.60;100348.91;3519741;40;102786;-39
2021/05/21 02:30:22;;;;;;;;;;;12.80;99.90;;;11.44;65.51;100348.66;3511278;40;102437;-39
2021/05/21 02:32:50;;;;;;;;;;;12.80;99.90;;;11.45;65.37;100349.50;3519455;39;102939;-39
2021/05/21 02:35:19;;;;;;;;;;;12.80;99.90;;;11.41;65.61;100349.13;3502526;40;103089;-39
2021/05/21 02:37:47;;;;;;;;;;;12.80;99.90;;;11.38;65.87;100349.59;3503030;40;103032;-39
2021/05/21 02:40:18;;;;;;;;;;;12.80;99.90;;;11.34;65.65;100342.91;3503583;40;103126;-39
2021/05/21 02:42:46;;;;;;;;;;;12.80;99.90;;;11.31;65.33;100337.94;3519358;40;102653;-39
2021/05/21 02:45:15;;;;;;;;;;;12.80;99.90;;;11.33;66.39;100350.28;3510820;40;104363;-39
2021/05/21 02:47:42;;;;;;;;;;;12.70;99.90;;;11.32;66.28;100337.69;3520499;40;102681;-39
2021/05/21 02:50:10;;;;;;;;;;;12.70;99.90;;;11.32;66.19;100345.88;3503396;40;103227;-39
2021/05/21 02:52:38;;;;;;;;;;;12.70;99.90;;;11.32;66.83;100337.69;3511321;40;102787;-39
2021/05/21 02:55:07;;;;;;;;;;;12.70;99.90;;;11.29;66.07;100338.13;3501953;40;104003;-39
2021/05/21 02:57:35;;;;;;;;;;;12.70;99.90;;;11.33;65.66;100328.41;3503121;40;102281;-39
2021/05/21 03:00:04;;;;;;;;;;;12.70;99.90;;;11.33;65.81;100330.34;3502502;40;104234;-39
2021/05/21 03:02:32;;;;;;;;;;;12.70;99.90;;;11.32;66.13;100328.66;3502969;40;103111;-39
2021/05/21 03:05:00;;;;;;;;;;;12.70;99.90;;;11.24;66.61;100329.81;3502522;40;105838;-39
2021/05/21 03:07:28;;;;;;;;;;;12.70;99.90;;;11.22;66.24;100321.81;3503056;40;104675;-39
2021/05/21 03:09:55;;;;;;;;;;;12.60;99.90;;;11.19;66.28;100316.00;3503025;40;105777;-39
2021/05/21 03:12:23;;;;;;;;;;;12.60;99.90;;;11.15;65.84;100314.81;3503021;40;104886;-39
2021/05/21 03:14:51;;;;;;;;;;;12.60;99.90;;;11.03;66.40;100312.00;3502390;40;105785;-39
2021/05/21 03:17:19;;;;;;;;;;;12.50;99.90;;;11.00;65.96;100301.53;3502624;40;103045;-39
2021/05/21 03:19:47;;;;;;;;;;;12.40;99.90;;;10.88;66.75;100305.03;3502383;40;104027;-39
2021/05/21 03:22:15;;;;;;;;;;;12.40;99.90;;;10.88;66.26;100298.75;3511003;40;103440;-39
2021/05/21 03:24:42;;;;;;;;;;;12.30;99.90;;;10.88;66.50;100290.56;3502527;40;103366;-39
2021/05/21 03:27:10;;;;;;;;;;;12.30;99.90;;;10.78;66.88;100289.19;3510627;40;102596;-39
2021/05/21 03:29:37;;;;;;;;;;;12.30;99.90;;;10.70;67.17;100283.19;3510968;40;104292;-39
2021/05/21 03:32:05;;;;;;;;;;;12.20;99.90;;;10.65;68.10;100289.34;3503131;40;102305;-40
2021/05/21 03:34:33;;;;;;;;;;;12.10;99.90;;;10.57;67.70;100284.16;3511199;40;103014;-39
2021/05/21 03:37:00;;;;;;;;;;;12.10;99.90;;;10.63;67.81;100288.72;3510657;40;102998;-39
2021/05/21 03:39:28;;;;;;;;;;;12.10;99.90;;;10.59;67.17;100295.66;3502545;40;106244;-39
2021/05/21 03:41:55;;;;;;;;;;;12.00;99.90;;;10.59;67.53;100279.31;3502661;40;104095;-39
2021/05/21 03:44:23;;;;;;;;;;;12.00;99.90;;;10.55;67.49;100280.81;3510652;40;102140;-39
2021/05/21 03:46:51;;;;;;;;;;;12.00;99.90;;;10.56;67.93;100279.75;3510890;40;102866;-39
2021/05/21 03:49:18;;;;;;;;;;;12.00;99.90;;;10.57;67.67;100292.34;3510559;40;105265;-39
2021/05/21 03:51:46;;;;;;;;;;;12.00;99.90;;;10.62;67.65;100284.34;3510740;40;102586;-39
2021/05/21 03:54:13;;;;;;;;;;;12.00;99.90;;;10.70;67.50;100275.84;3510366;40;103981;-39
2021/05/21 03:56:40;;;;;;;;;;;12.10;99.90;;;10.74;67.96;100271.59;3502846;40;102965;-39
2021/05/21 03:59:08;;;;;;;;;;;12.10;99.90;;;10.77;67.39;100273.88;3502315;40;104234;-39
2021/05/21 04:01:36;;;;;;;;;;;12.20;99.90;;;10.82;67.63;100269.63;3494261;40;102492;-39
2021/05/21 04:04:05;;;;;;;;;;;12.20;99.90;;;10.83;67.84;100268.56;3510075;40;103054;-39
2021/05/21 04:06:33;;;;;;;;;;;12.20;99.90;;;10.86;67.42;100268.94;3519191;40;102504;-39
2021/05/21 04:09:05;;;;;;;;;;;12.20;99.90;;;10.90;68.02;100266.59;3519797;40;102517;-39
2021/05/21 04:11:35;;;;;;;;;;;12.30;99.90;;;11.00;65.79;100266.88;3520649;40;102261;-39
2021/05/21 04:14:06;;;;;;;;;;;12.40;99.90;;;10.96;66.42;100257.50;3511427;40;104642;-39
2021/05/21 04:16:33;;;;;;;;;;;12.30;99.90;;;10.98;66.57;100249.91;3511687;40;102513;-39
2021/05/21 04:19:00;;;;;;;;;;;12.30;99.90;;;10.94;66.80;100249.53;3511231;39;104718;-39
2021/05/21 04:21:32;;;;;;;;;;;12.40;99.90;;;10.88;67.50;100249.63;3511955;40;104685;-39
2021/05/21 04:23:59;;;;;;;;;;;12.30;99.90;;;10.87;67.57;100253.38;3511193;40;105688;-39
2021/05/21 04:26:27;;;;;;;;;;;12.30;99.90;;;10.78;67.90;100245.50;3511964;40;102486;-39
2021/05/21 04:28:55;;;;;;;;;;;12.20;99.90;;;10.76;67.29;100247.63;3511354;40;102339;-39
2021/05/21 04:31:22;;;;;;;;;;;12.20;99.90;;;10.75;67.36;100235.06;3495551;40;103855;-39
2021/05/21 04:33:51;;;;;;;;;;;12.20;99.90;;;10.76;67.60;100247.63;3503273;40;105847;-39
2021/05/21 04:36:20;;;;;;;;;;;12.20;99.90;;;10.76;67.84;100239.44;3521508;39;102030;-39
2021/05/21 04:38:48;;;;;;;;;;;12.10;99.90;;;10.77;67.70;100238.41;3521172;39;102233;-39
2021/05/21 04:41:15;;;;;;;;;;;12.20;99.90;;;10.72;67.94;100235.53;3519873;40;102882;-40
2021/05/21 04:43:44;;;;;;;;;;;12.10;99.90;;;10.75;67.93;100240.53;3511420;40;102275;-40
2021/05/21 04:46:13;;;;;;;;;;;12.20;99.90;;;10.75;68.45;100231.50;3512041;40;102763;-39
2021/05/21 04:48:41;;;;;;;;;;;12.10;99.90;;;10.69;68.97;100230.53;3520710;39;104821;-39
2021/05/21 04:51:09;;;;;;;;;;;12.10;99.90;;;10.74;68.22;100232.53;3511703;40;102362;-39
2021/05/21 04:53:37;;;;;;;;;;;12.10;99.90;;;10.74;68.45;100227.94;3503083;40;104358;-39
2021/05/21 04:56:06;;;;;;;;;;;12.10;99.90;;;10.85;68.31;100233.69;3511802;40;102780;-39
2021/05/21 04:58:35;;;;;;;;;;;12.20;99.90;;;10.85;68.40;100234.53;3519492;40;103959;-39
2021/05/21 05:01:03;;;;;;;;;;;12.20;99.90;;;10.88;68.49;100233.25;3520098;40;102325;-39
2021/05/21 05:03:31;;;;;;;;;;;12.20;99.90;;;10.99;68.04;100228.88;3520164;40;103073;-38
2021/05/21 05:05:58;;;;;;;;;;;12.30;99.90;;;11.15;68.16;100219.25;3511764;40;103091;-40
2021/05/21 05:08:27;;;;;;;;;;;12.40;99.90;;;11.26;68.06;100213.00;3503118;40;102581;-39
2021/05/21 05:10:55;;;;;;;;;;;12.50;99.90;;;11.40;67.71;100219.09;3512184;40;102357;-40
2021/05/21 05:13:23;;;;;;;;;;;12.60;99.90;;;11.56;66.57;100219.50;3511597;40;104551;-39
2021/05/21 05:15:50;;;;;;;;;;;12.80;99.90;;;11.64;67.07;100219.16;3511569;40;102903;-39
2021/05/21 05:18:18;;;;;;;;;;;12.80;99.90;;;11.76;66.29;100210.97;3520112;39;104192;-39
2021/05/21 05:20:46;;;;;;;;;;;13.00;99.90;;;11.83;65.79;100210.88;3519869;39;102954;-39
2021/05/21 05:23:14;;;;;;;;;;;13.10;99.90;;;11.82;66.85;100214.69;3511800;40;103223;-38
2021/05/21 05:25:44;;;;;;;;;;;13.10;99.90;;;11.87;66.30;100215.63;3519696;40;102445;-39
2021/05/21 05:28:12;;;;;;;;;;;13.10;99.90;;;11.87;65.12;100212.88;3519710;40;102346;-39
2021/05/21 05:30:40;;;;;;;;;;;13.20;99.90;;;11.94;65.78;100210.88;3519678;40;102170;-39
2021/05/21 05:33:08;;;;;;;;;;;13.20;99.90;;;11.94;65.70;100202.69;3519824;40;103036;-39
2021/05/21 05:35:35;;;;;;;;;;;13.20;99.90;;;11.98;65.24;100207.69;3511120;40;104401;-39
2021/05/21 05:38:02;;;;;;;;;;;13.30;99.90;;;12.00;65.92;100211.00;3511556;40;105626;-39
2021/05/21 05:40:31;;;;;;;;;;;13.30;99.90;;;12.04;65.62;100209.50;3519403;40;102195;-39
2021/05/21 05:42:59;;;;;;;;;;;13.30;99.90;;;12.08;65.31;100197.84;3520412;39;104817;-39
2021/05/21 05:45:26;;;;;;;;;;;13.40;99.90;;;12.13;64.43;100199.84;3519018;40;102329;-39
2021/05/21 05:47:54;;;;;;;;;;;13.40;99.90;;;12.14;64.99;100198.78;3519515;40;104893;-41
2021/05/21 05:50:21;;;;;;;;;;;13.40;99.90;;;12.15;65.57;100200.44;3520697;39;102385;-39
2021/05/21 05:52:48;;;;;;;;;;;13.40;99.90;;;12.23;65.00;100196.53;3511997;40;103113;-39
2021/05/21 05:55:16;;;;;;;;;;;13.50;99.90;;;12.23;64.93;100208.31;3511013;40;102819;-39
2021/05/21 05:57:43;;;;;;;;;;;13.50;99.90;;;12.23;64.58;100194.63;3511390;40;102227;-39
2021/05/21 06:00:12;;;;;;;;;;;13.50;99.90;;;12.32;64.36;100188.78;3519451;40;102372;-39
2021/05/21 06:02:39;;;;;;;;;;;13.60;99.90;;;12.37;65.35;100192.47;3511566;40;103335;-39
2021/05/21 06:05:07;;;;;;;;;;;13.60;99.90;;;12.44;63.38;100184.13;3511156;40;102273;-39
2021/05/21 06:07:35;;;;;;;;;;;13.70;99.90;;;12.49;64.12;100184.25;3520449;39;102151;-39
2021/05/21 06:10:04;;;;;;;;;;;13.70;99.90;;;12.54;64.87;100190.91;3511433;40;103455;-40
2021/05/21 06:12:31;;;;;;;;;;;13.80;99.90;;;12.57;63.87;100180.28;3520689;40;103131;-39
2021/05/21 06:14:59;;;;;;;;;;;13.80;99.90;;;12.65;65.47;100179.94;3519923;40;102883;-39
2021/05/21 06:17:26;;;;;;;;;;;13.90;99.90;;;12.71;65.11;100190.97;3519613;40;103392;-39
2021/05/21 06:19:54;;;;;;;;;;;13.90;99.90;;;12.71;62.85;100177.28;3518790;40;103407;-39
2021/05/21 06:22:21;;;;;;;;;;;13.90;99.90;;;12.75;63.39;100162.88;3520740;39;103214;-39
2021/05/21 06:24:51;;;;;;;;;;;14.00;99.90;;;12.79;62.88;100168.69;3511127;40;102679;-40
2021/05/21 06:27:23;;;;;;;;;;;14.00;99.90;;;12.89;64.31;100174.38;3511404;40;105077;-39
2021/05/21 06:29:51;;;;;;;;;;;14.10;99.90;;;12.97;62.41;100175.06;3519634;40;102308;-39
2021/05/21 06:32:18;;;;;;;;;;;14.10;99.90;;;13.02;62.13;100184.22;3519433;40;104083;-39
2021/05/21 06:34:46;;;;;;;;;;;14.20;99.90;;;13.06;63.01;100170.84;3520114;39;102621;-39
2021/05/21 06:37:22;;;;;;;;;;;14.20;99.90;;;13.22;61.88;100171.94;3519463;40;102279;-39
2021/05/21 06:40:08;;;;;;;;;;;14.40;99.90;;;13.29;62.91;100158.97;3505808;40;104324;-41
2021/05/21 06:42:36;;;;;;;;;;;14.40;99.90;;;13.40;61.80;100167.34;3519266;40;104011;-39
2021/05/21 06:45:06;;;;;;;;;;;14.60;99.90;;;13.44;62.26;100179.50;3519846;39;102375;-39
2021/05/21 06:47:33;;;;;;;;;;;14.60;99.90;;;13.54;61.37;100176.09;3519065;40;103030;-40
2021/05/21 06:50:01;;;;;;;;;;;14.70;99.90;;;13.84;59.55;100173.03;3520669;39;102814;-41
2021/05/21 06:52:29;;;;;;;;;;;14.90;99.90;;;13.90;58.87;100174.78;3511379;40;102988;-39
2021/05/21 06:54:57;;;;;;;;;;;15.00;99.90;;;13.74;60.11;100170.97;3520142;39;102954;-39
2021/05/21 06:57:25;;;;;;;;;;;15.00;99.90;;;13.62;59.71;100172.94;3520300;39;102251;-39
2021/05/21 06:59:52;;;;;;;;;;;14.90;99.90;;;13.63;58.26;100166.38;3519659;40;102422;-39
2021/05/21 07:02:20;;;;;;;;;;;14.90;99.90;;;13.88;57.43;100187.06;3519300;40;104023;-39
2021/05/21 07:04:47;;;;;;;;;;;15.00;99.90;;;14.04;56.73;100186.22;3520012;40;102850;-39
2021/05/21 07:07:14;;;;;;;;;;;15.20;99.90;;;13.95;56.82;100179.50;3519723;40;103049;-39
2021/05/21 07:09:43;;;;;;;;;;;15.20;99.90;;;13.79;58.02;100176.53;3520038;39;102892;-39
2021/05/21 07:12:10;;;;;;;;;;;15.10;99.90;;;13.79;60.24;100171.03;3511151;40;104740;-39
2021/05/21 07:14:38;;;;;;;;;;;15.00;99.90;;;14.21;60.13;100175.22;3502287;40;102385;-39
2021/05/21 07:17:06;;;;;;;;;;;15.20;99.90;;;14.27;57.33;100184.34;3519112;40;104018;-39
2021/05/21 07:19:33;;;;;;;;;;;15.40;99.90;;;14.18;58.19;100174.88;3646441;22;104116;-41
2021/05/21 07:22:07;;;;;;;;;;;15.30;99.90;;;13.96;56.61;100175.69;3501210;40;103057;-40
2021/05/21 07:24:35;;;;;;;;;;;15.30;99.90;;;13.85;56.43;100174.69;3509556;40;102137;-40
2021/05/21 07:27:04;;;;;;;;;;;15.20;99.90;;;13.63;57.20;100186.41;3508997;40;103064;-40
2021/05/21 07:29:32;;;;;;;;;;;15.00;99.90;;;13.59;56.31;100177.03;3507207;40;104521;-40
2021/05/21 07:31:59;;;;;;;;;;;14.90;99.90;;;13.71;55.86;100179.69;3500639;40;103182;-41
2021/05/21 07:34:27;;;;;;;;;;;14.90;99.90;;;13.71;55.74;100179.69;3499922;40;102426;-39
2021/05/21 07:36:55;;;;;;;;;;;14.90;99.90;;;13.83;56.28;100181.50;3499671;40;103155;-40
2021/05/21 07:39:22;;;;;;;;;;;15.00;99.90;;;13.72;55.01;100172.28;3499158;40;102495;-40
2021/05/21 07:41:51;;;;;;;;;;;15.00;99.90;;;13.54;54.47;100179.69;3500415;40;102226;-40
2021/05/21 07:44:18;;;;;;;;;;;14.90;99.90;;;13.44;55.51;100185.81;3499810;40;103047;-40
2021/05/21 07:46:47;;;;;;;;;;;14.80;99.90;;;13.29;54.99;100177.28;3499964;40;103140;-41
2021/05/21 07:49:15;;;;;;;;;;;14.60;99.90;;;13.24;55.81;100169.78;3508233;40;102944;-40
2021/05/21 07:51:42;;;;;;;;;;;14.60;99.90;;;13.50;55.55;100167.53;3500489;40;102476;-43
2021/05/21 07:54:09;;;;;;;;;;;14.70;99.90;;;13.97;54.81;100174.59;3500023;40;102897;-40
2021/05/21 07:56:37;;;;;;;;;;;14.90;99.90;;;14.39;52.58;100176.00;3501234;40;102336;-41
2021/05/21 07:59:04;;;;;;;;;;;15.30;99.90;;;14.29;52.33;100173.13;3508234;40;103944;-41
2021/05/21 08:01:31;;;;;;;;;;;15.40;99.90;;;14.26;53.83;100168.13;3500343;40;103041;-41
2021/05/21 08:03:59;;;;;;;;;;;15.50;99.90;;;14.07;53.04;100177.50;3501306;40;102683;-43
2021/05/21 08:06:26;;;;;;;;;;;15.40;99.90;;;13.97;54.49;100171.03;3501502;40;103265;-40
2021/05/21 08:08:54;;;;;;;;;;;15.30;99.90;;;13.94;52.04;100170.44;3500304;40;102193;-40
2021/05/21 08:11:21;;;;;;;;;;;15.30;99.90;;;14.13;50.79;100178.41;3501466;40;102138;-42
2021/05/21 08:13:48;;;;;;;;;;;15.30;99.90;;;14.66;51.32;100167.03;3500937;40;102384;-40
2021/05/21 08:16:16;;;;;;;;;;;15.60;99.90;;;15.09;51.37;100153.53;3501209;40;102226;-40
2021/05/21 08:18:43;;;;;;;;;;;16.00;99.90;;;15.39;50.19;100153.00;3500545;40;102685;-40
2021/05/21 08:21:11;;;;;;;;;;;16.30;99.90;;;15.80;48.12;100157.16;3501309;40;102147;-40
2021/05/21 08:23:38;;;;;;;;;;;16.60;98.50;;;16.24;49.43;100150.56;3500825;40;102936;-40
2021/05/21 08:26:07;;;;;;;;;;;17.00;99.70;;;16.32;46.40;100147.34;3501978;40;102263;-39
2021/05/21 08:28:34;;;;;;;;;;;17.30;96.10;;;16.42;44.60;100149.28;3501512;40;102825;-41
2021/05/21 08:31:03;;;;;;;;;;;17.50;93.70;;;16.44;44.22;100151.78;3508391;40;102256;-40
2021/05/21 08:33:31;;;;;;;;;;;17.50;92.30;;;16.49;44.88;100136.13;3500465;40;102513;-41
2021/05/21 08:35:58;;;;;;;;;;;17.60;92.60;;;16.71;43.83;100159.03;3500409;40;104879;-41
2021/05/21 08:38:26;;;;;;;;;;;17.70;90.70;;;16.66;37.69;100148.84;3508549;40;102153;-40
2021/05/21 08:40:53;;;;;;;;;;;17.80;75.70;;;16.51;39.74;100147.69;3501147;40;103143;-41
2021/05/21 08:43:21;;;;;;;;;;;17.70;78.40;;;16.55;41.79;100167.22;3500118;40;102527;-42
2021/05/21 08:45:49;;;;;;;;;;;17.70;82.20;;;16.48;41.84;100162.00;3508131;40;103071;-41
2021/05/21 08:48:18;;;;;;;;;;;17.70;81.60;;;16.61;41.71;100166.19;3501526;40;102397;-40
2021/05/21 08:50:49;;;;;;;;;;;17.70;82.30;;;16.62;42.59;100161.50;3500064;40;104029;-40
2021/05/21 08:53:17;;;;;;;;;;;17.70;83.50;;;16.58;42.58;100165.88;3501104;40;102803;-38
2021/05/21 08:55:45;;;;;;;;;;;17.70;83.60;;;16.76;42.95;100162.66;3508536;40;103184;-40
2021/05/21 08:58:13;;;;;;;;;;;17.80;84.40;;;16.54;43.82;100182.94;3508296;40;102324;-41
2021/05/21 09:00:41;;;;;;;;;;;17.70;86.30;;;16.52;42.61;100181.53;3500999;40;104213;-40
2021/05/21 09:03:19;;;;;;;;;;;17.70;83.70;;;16.37;42.37;100177.63;3501079;40;102246;-41
2021/05/21 09:08:46;;;;;;;;;;;17.60;75.80;;;16.23;40.96;100182.78;3501300;39;102397;-41
2021/05/21 09:11:24;;;;;;;;;;;17.40;77.00;;;15.94;39.91;100188.66;3501062;40;102290;-41
2021/05/21 09:13:56;;;;;;;;;;;17.20;74.10;;;15.72;41.93;100174.16;3500376;40;102386;-41
2021/05/21 09:16:27;;;;;;;;;;;17.00;78.80;;;15.91;40.70;100177.34;3500284;40;102308;-41
2021/05/21 09:19:06;;;;;;;;;;;17.10;77.50;;;16.25;41.87;100171.50;3500399;40;102188;-44
2021/05/21 09:21:53;;;;;;;;;;;17.20;77.60;;;16.25;37.67;100180.59;3508195;40;102792;-41
2021/05/21 09:24:33;;;;;;;;;;;17.40;72.50;;;16.42;39.11;100181.50;3501153;40;102837;-40
2021/05/21 09:27:02;;;;;;;;;;;17.50;72.60;;;16.38;39.73;100182.03;3500804;40;103990;-40
2021/05/21 09:29:49;;;;;;;;;;;17.50;73.70;;;16.15;37.89;100188.78;3500291;40;102420;-41
2021/05/21 09:32:36;;;;;;;;;;;17.40;71.90;;;16.06;41.52;100182.13;3501173;40;103042;-41
2021/05/21 09:35:16;;;;;;;;;;;17.30;75.00;;;15.81;39.76;100176.16;3500529;40;102375;-40
2021/05/21 09:37:48;;;;;;;;;;;17.20;72.30;;;15.60;40.53;100172.38;3501587;40;103288;-40
2021/05/21 09:40:27;;;;;;;;;;;17.00;73.80;;;15.64;41.97;100173.50;3507952;40;102596;-41
2021/05/21 09:42:55;;;;;;;;;;;16.90;75.50;;;15.76;41.07;100178.03;3500940;40;105055;-41
2021/05/21 09:45:34;;;;;;;;;;;16.90;75.60;;;15.72;41.08;100171.41;3500704;40;102410;-40
2021/05/21 09:48:05;;;;;;;;;;;17.00;77.50;;;15.51;41.84;100171.22;3499864;40;105807;-41
2021/05/21 09:50:34;;;;;;;;;;;16.80;76.40;;;15.53;43.29;100172.63;3500902;40;102406;-40
2021/05/21 09:53:08;;;;;;;;;;;16.70;81.90;;;16.01;43.11;100173.84;3500988;40;103126;-40
2021/05/21 09:55:40;;;;;;;;;;;17.00;80.80;;;16.62;41.07;100169.75;3501034;40;102759;-40
2021/05/21 09:58:08;;;;;;;;;;;17.40;78.50;;;16.72;40.88;100166.22;3508002;40;103080;-40
2021/05/21 10:00:36;;;;;;;;;;;17.70;76.70;;;16.30;38.35;100166.00;3501059;40;102138;-40
2021/05/21 10:03:04;;;;;;;;;;;17.60;70.50;;;16.27;39.64;100177.56;3500505;40;104014;-40
2021/05/21 10:05:50;;;;;;;;;;;17.50;73.30;;;16.37;39.76;100172.13;3499724;40;102365;-40
2021/05/21 10:08:18;;;;;;;;;;;17.50;73.20;;;16.39;42.88;100180.09;3499522;40;103849;-40
2021/05/21 10:10:46;;;;;;;;;;;17.50;77.70;;;16.59;38.67;100168.38;3499581;40;102578;-41
2021/05/21 10:13:14;;;;;;;;;;;17.70;71.60;;;16.19;37.60;100181.66;3499423;40;103120;-38
2021/05/21 10:15:42;;;;;;;;;;;17.50;68.20;;;16.05;42.69;100197.81;3500905;40;102447;-40
2021/05/21 10:18:13;;;;;;;;;;;17.30;75.90;;;16.02;44.55;100186.50;3499840;40;103779;-40
2021/05/21 10:20:44;;;;;;;;;;;17.20;79.80;;;16.40;40.75;100187.25;3507014;40;103982;-43
2021/05/21 10:23:17;;;;;;;;;;;17.40;74.70;;;16.77;40.43;100188.25;3508069;40;103820;-42
2021/05/21 10:25:48;;;;;;;;;;;17.70;76.30;;;16.82;43.12;100172.59;3501044;40;102823;-40
2021/05/21 10:28:18;;;;;;;;;;;17.90;78.00;;;16.81;38.67;100183.84;3500605;40;104041;-41
2021/05/21 10:30:45;;;;;;;;;;;17.90;71.30;;;16.57;38.40;100176.06;3500430;40;103639;-40
2021/05/21 10:33:14;;;;;;;;;;;17.80;70.20;;;16.53;45.37;100184.03;3507618;40;102689;-39
2021/05/21 10:35:50;;;;;;;;;;;17.70;82.70;;;16.62;40.44;100172.50;3500764;40;102302;-40
2021/05/21 10:38:28;;;;;;;;;;;17.80;74.30;;;16.66;38.67;100176.38;3507666;40;102283;-41
2021/05/21 10:41:15;;;;;;;;;;;17.80;70.60;;;16.58;36.34;100171.38;3499656;40;102391;-41
2021/05/21 10:43:55;;;;;;;;;;;17.80;69.20;;;16.78;38.41;100187.16;3500747;40;102159;-41
2021/05/21 10:46:32;;;;;;;;;;;17.80;69.70;;;16.77;37.47;100158.81;3500961;40;102198;-40
2021/05/21 10:49:02;;;;;;;;;;;18.00;67.50;;;17.08;38.22;100161.66;3499662;40;102204;-40
2021/05/21 10:51:50;;;;;;;;;;;18.10;70.00;;;17.59;40.76;100173.84;3500858;40;102667;-40
2021/05/21 10:54:37;;;;;;;;;;;18.40;74.20;;;17.51;39.04;100171.66;3500636;39;104904;-40
2021/05/21 10:57:15;;;;;;;;;;;18.50;69.40;;;17.16;37.95;100164.97;3501061;40;102291;-41
2021/05/21 10:59:59;;;;;;;;;;;18.50;66.40;;;16.87;39.61;100155.25;3501063;40;102340;-40
2021/05/21 11:02:49;;;;;;;;;;;18.20;70.20;;;17.19;39.85;100158.91;3500750;39;103077;-40
2021/05/21 11:05:30;;;;;;;;;;;18.30;68.50;;;17.03;41.29;100149.78;3499432;40;102309;-40
2021/05/21 11:08:09;;;;;;;;;;;18.30;69.50;;;17.18;37.17;100151.75;3500715;40;102385;-41
2021/05/21 11:10:37;;;;;;;;;;;18.30;67.40;;;17.47;39.85;100142.94;3500781;39;104009;-41
2021/05/21 11:13:15;;;;;;;;;;;18.50;72.20;;;17.74;39.82;100142.69;3500012;40;102386;-41
2021/05/21 11:15:44;;;;;;;;;;;18.70;76.20;;;17.67;37.14;100145.72;3499850;40;102316;-41